createdAt,value
2022-12-17T00:02:16.577Z,25.80
2022-12-17T00:05:07.658Z,31.77
2022-12-17T00:07:53.212Z,32.77
2022-12-17T00:10:40.799Z,32.92
2022-12-17T00:13:37.715Z,30.42
2022-12-17T00:16:24.779Z,30.17
2022-12-17T00:19:12.491Z,27.20
2022-12-17T00:21:58.450Z,28.15
2022-12-17T00:24:44.599Z,32.17
2022-12-17T00:27:30.473Z,31.08
2022-12-17T00:30:16.459Z,29.10
2022-12-17T00:33:03.532Z,27.75
2022-12-17T00:35:50.540Z,30.33
2022-12-17T00:38:36.565Z,25.52
2022-12-17T00:41:22.696Z,29.60
2022-12-17T00:44:08.786Z,35.10
2022-12-17T00:46:55.671Z,30.60
2022-12-17T00:49:41.754Z,28.70
2022-12-17T00:52:29.637Z,30.70
2022-12-17T00:55:15.897Z,30.98
2022-12-17T00:58:01.681Z,28.38
2022-12-17T01:00:48.838Z,31.15
2022-12-17T01:03:34.798Z,29.65
2022-12-17T01:06:21.848Z,27.55
2022-12-17T01:09:09.028Z,32.20
2022-12-17T01:11:56.392Z,34.40
2022-12-17T01:14:43.221Z,32.40
2022-12-17T01:17:29.707Z,31.40
2022-12-17T01:20:16.324Z,29.98
2022-12-17T01:23:04.452Z,37.47
2022-12-17T01:25:51.399Z,36.75
2022-12-17T01:28:41.325Z,30.92
2022-12-17T01:31:31.392Z,33.10
2022-12-17T01:34:20.080Z,29.70
2022-12-17T01:37:06.372Z,32.80
2022-12-17T01:39:52.616Z,36.00
2022-12-17T01:42:39.562Z,35.38
2022-12-17T01:45:29.276Z,34.20
2022-12-17T01:48:19.921Z,34.58
2022-12-17T01:51:09.590Z,31.55
2022-12-17T01:54:00.276Z,33.58
2022-12-17T01:56:46.671Z,33.05
2022-12-17T01:59:37.125Z,35.13
2022-12-17T02:02:25.330Z,32.97
2022-12-17T02:05:11.562Z,33.53
2022-12-17T02:08:07.912Z,36.83
2022-12-17T02:11:03.139Z,37.25
2022-12-17T02:13:54.465Z,32.88
2022-12-17T02:16:49.247Z,35.97
2022-12-17T02:19:49.385Z,31.73
2022-12-17T02:22:41.670Z,39.17
2022-12-17T02:25:35.116Z,35.20
2022-12-17T02:28:22.828Z,44.70
2022-12-17T02:31:10.242Z,45.10
2022-12-17T02:33:56.396Z,36.85
2022-12-17T02:36:42.455Z,39.00
2022-12-17T02:39:28.710Z,36.17
2022-12-17T02:42:16.644Z,35.83
2022-12-17T02:45:05.346Z,39.95
2022-12-17T02:47:51.282Z,38.10
2022-12-17T02:50:37.598Z,35.45
2022-12-17T02:53:23.725Z,38.92
2022-12-17T02:56:24.166Z,47.13
2022-12-17T02:59:10.191Z,37.83
2022-12-17T03:01:58.841Z,38.33
2022-12-17T03:04:44.722Z,38.35
2022-12-17T03:07:30.455Z,44.13
2022-12-17T03:10:16.384Z,44.33
2022-12-17T03:13:02.206Z,34.17
2022-12-17T03:15:48.654Z,38.75
2022-12-17T03:18:35.897Z,37.03
2022-12-17T03:21:21.661Z,34.72
2022-12-17T03:24:07.600Z,33.72
2022-12-17T03:26:53.728Z,36.85
2022-12-17T03:29:39.378Z,31.35
2022-12-17T03:32:25.163Z,36.05
2022-12-17T03:35:12.433Z,36.83
2022-12-17T03:37:58.148Z,36.88
2022-12-17T03:40:43.708Z,37.78
2022-12-17T03:43:30.893Z,36.35
2022-12-17T03:46:16.522Z,38.60
2022-12-17T03:49:02.553Z,32.33
2022-12-17T03:51:49.593Z,32.83
2022-12-17T03:54:35.299Z,35.13
2022-12-17T03:57:20.965Z,31.70
2022-12-17T04:00:07.141Z,33.20
2022-12-17T04:02:59.605Z,30.92
2022-12-17T04:05:45.586Z,31.88
2022-12-17T04:08:32.660Z,33.05
2022-12-17T04:11:18.773Z,28.60
2022-12-17T04:14:04.815Z,36.65
2022-12-17T04:16:50.830Z,26.40
2022-12-17T04:19:36.426Z,32.58
2022-12-17T04:22:22.424Z,28.00
2022-12-17T04:25:10.186Z,30.50
2022-12-17T04:27:56.279Z,27.25
2022-12-17T04:30:42.035Z,31.13
2022-12-17T04:33:27.646Z,29.48
2022-12-17T04:36:13.722Z,26.20
2022-12-17T04:38:59.327Z,26.23
2022-12-17T04:41:46.499Z,31.83
2022-12-17T04:44:32.319Z,29.92
2022-12-17T04:47:19.492Z,29.92
2022-12-17T04:50:05.532Z,30.33
2022-12-17T04:52:51.022Z,23.20
2022-12-17T04:55:36.694Z,26.52
2022-12-17T04:58:24.894Z,32.47
2022-12-17T05:01:11.304Z,31.83
2022-12-17T05:03:58.275Z,26.00
2022-12-17T05:06:44.527Z,25.73
2022-12-17T05:09:30.098Z,28.27
2022-12-17T05:12:17.050Z,28.00
2022-12-17T05:15:04.508Z,26.00
2022-12-17T05:18:04.611Z,27.02
2022-12-17T05:20:50.982Z,33.10
2022-12-17T05:23:38.230Z,29.25
2022-12-17T05:26:26.113Z,29.83
2022-12-17T05:29:15.816Z,30.75
2022-12-17T05:32:03.700Z,30.75
2022-12-17T05:34:51.598Z,32.17
2022-12-17T05:37:38.244Z,28.23
2022-12-17T05:40:37.163Z,31.13
2022-12-17T05:43:25.414Z,25.45
2022-12-17T05:46:11.365Z,29.58
2022-12-17T05:48:58.820Z,30.77
2022-12-17T05:51:45.062Z,28.55
2022-12-17T05:54:31.287Z,35.03
2022-12-17T05:57:17.517Z,25.83
2022-12-17T06:00:04.380Z,30.63
2022-12-17T06:02:57.962Z,30.45
2022-12-17T06:05:47.819Z,29.45
2022-12-17T06:08:33.564Z,30.30
2022-12-17T06:11:20.144Z,31.70
2022-12-17T06:14:06.055Z,30.75
2022-12-17T06:16:52.044Z,25.67
2022-12-17T06:19:38.645Z,30.27
2022-12-17T06:22:30.142Z,35.40
2022-12-17T06:25:15.520Z,28.25
2022-12-17T06:28:01.524Z,32.20
2022-12-17T06:30:47.475Z,25.23
2022-12-17T06:33:38.945Z,30.42
2022-12-17T06:36:36.839Z,29.13
2022-12-17T06:39:24.082Z,27.13
2022-12-17T06:42:06.239Z,26.00
2022-12-17T06:44:52.045Z,27.13
2022-12-17T06:47:37.948Z,27.42
2022-12-17T06:50:25.062Z,26.05
2022-12-17T06:53:18.243Z,26.98
2022-12-17T06:56:05.511Z,26.95
2022-12-17T06:58:51.478Z,27.80
2022-12-17T07:01:37.210Z,30.33
2022-12-17T07:04:32.205Z,26.33
2022-12-17T07:07:18.147Z,31.92
2022-12-17T07:10:06.845Z,27.73
2022-12-17T07:13:05.284Z,26.73
2022-12-17T07:15:51.663Z,24.33
2022-12-17T07:18:37.443Z,29.20
2022-12-17T07:21:23.443Z,29.67
2022-12-17T07:24:09.662Z,31.00
2022-12-17T07:26:55.506Z,28.92
2022-12-17T07:29:43.012Z,26.70
2022-12-17T07:32:29.474Z,24.60
2022-12-17T07:35:21.250Z,27.30
2022-12-17T07:38:06.822Z,27.13
2022-12-17T07:40:53.113Z,27.05
2022-12-17T07:43:39.249Z,24.13
2022-12-17T07:46:27.082Z,27.15
2022-12-17T07:49:13.150Z,22.65
2022-12-17T07:51:55.596Z,27.60
2022-12-17T07:54:41.867Z,27.33
2022-12-17T07:57:27.719Z,24.83
2022-12-17T08:00:13.866Z,24.38
2022-12-17T08:03:01.900Z,27.25
2022-12-17T08:05:47.962Z,28.27
2022-12-17T08:08:33.916Z,24.83
2022-12-17T08:11:19.955Z,26.70
2022-12-17T08:14:05.924Z,29.00
2022-12-17T08:16:51.975Z,22.73
2022-12-17T08:19:40.806Z,27.13
2022-12-17T08:22:26.665Z,28.27
2022-12-17T08:25:12.802Z,24.35
2022-12-17T08:27:58.873Z,25.58
2022-12-17T08:30:44.875Z,25.40
2022-12-17T08:33:30.641Z,24.75
2022-12-17T08:36:17.009Z,23.00
2022-12-17T08:39:04.354Z,29.58
2022-12-17T08:41:54.454Z,28.48
2022-12-17T08:44:40.723Z,27.05
2022-12-17T08:47:26.594Z,30.42
2022-12-17T08:50:12.766Z,26.30
2022-12-17T08:52:59.840Z,27.50
2022-12-17T08:55:45.866Z,30.13
2022-12-17T08:58:31.617Z,31.10
2022-12-17T09:01:18.706Z,26.80
2022-12-17T09:04:04.824Z,27.00
2022-12-17T09:06:50.843Z,28.08
2022-12-17T09:09:38.776Z,27.98
2022-12-17T09:12:24.544Z,23.77
2022-12-17T09:15:10.083Z,24.27
2022-12-17T09:18:01.070Z,31.65
2022-12-17T09:20:46.854Z,26.67
2022-12-17T09:23:34.997Z,27.77
2022-12-17T09:26:25.051Z,22.95
2022-12-17T09:29:11.398Z,26.23
2022-12-17T09:31:57.053Z,26.08
2022-12-17T09:34:42.633Z,26.65
2022-12-17T09:37:27.927Z,27.85
2022-12-17T09:40:13.482Z,28.15
2022-12-17T09:43:10.808Z,28.55
2022-12-17T09:46:05.541Z,31.42
2022-12-17T09:48:59.562Z,31.58
2022-12-17T09:51:48.796Z,30.27
2022-12-17T09:54:41.315Z,34.58
2022-12-17T09:57:47.767Z,30.27
2022-12-17T10:00:38.957Z,33.28
2022-12-17T10:03:39.403Z,22.63
2022-12-17T10:06:29.248Z,28.08
2022-12-17T10:09:19.201Z,33.28
2022-12-17T10:12:04.884Z,31.00
2022-12-17T10:14:51.164Z,31.02
2022-12-17T10:17:45.916Z,31.60
2022-12-17T10:20:39.662Z,28.85
2022-12-17T10:23:25.855Z,29.58
2022-12-17T10:26:12.924Z,27.55
2022-12-17T10:28:59.307Z,31.88
2022-12-17T10:31:48.960Z,33.13
2022-12-17T10:34:39.435Z,34.00
2022-12-17T10:37:36.920Z,29.98
2022-12-17T10:40:38.959Z,32.03
2022-12-17T10:46:25.712Z,32.40
2022-12-17T10:49:22.952Z,35.17
2022-12-17T10:52:10.177Z,31.77
2022-12-17T10:54:57.144Z,33.30
2022-12-17T10:57:48.693Z,36.78
2022-12-17T11:00:49.001Z,30.23
2022-12-17T11:03:44.856Z,30.52
2022-12-17T11:06:36.249Z,31.58
2022-12-17T11:09:40.314Z,34.47
2022-12-17T11:12:30.736Z,28.33
2022-12-17T11:15:22.969Z,28.85
2022-12-17T11:18:11.527Z,30.17
2022-12-17T11:21:07.714Z,33.50
2022-12-17T11:23:56.229Z,36.47
2022-12-17T11:26:45.617Z,37.38
2022-12-17T11:29:32.931Z,30.20
2022-12-17T11:32:33.844Z,35.17
2022-12-17T11:35:29.091Z,30.85
2022-12-17T11:38:23.692Z,30.45
2022-12-17T11:41:13.124Z,29.23
2022-12-17T11:44:07.961Z,35.38
2022-12-17T11:47:04.111Z,34.42
2022-12-17T11:50:00.761Z,32.95
2022-12-17T11:52:53.801Z,33.30
2022-12-17T11:55:49.035Z,27.95
2022-12-17T11:58:42.834Z,32.00
2022-12-17T12:01:42.901Z,31.63
2022-12-17T12:04:40.681Z,30.40
2022-12-17T12:07:36.976Z,33.17
2022-12-17T12:10:30.684Z,36.60
2022-12-17T12:13:28.761Z,36.92
2022-12-17T12:16:25.606Z,32.53
2022-12-17T12:19:22.721Z,30.23
2022-12-17T12:22:16.867Z,34.03
2022-12-17T12:25:22.533Z,28.85
2022-12-17T12:28:19.574Z,37.13
2022-12-17T12:31:17.281Z,32.63
2022-12-17T12:34:23.919Z,30.98
2022-12-17T12:37:12.160Z,33.30
2022-12-17T12:40:05.790Z,29.33
2022-12-17T12:42:58.364Z,33.90
2022-12-17T12:45:55.729Z,29.10
2022-12-17T12:48:55.702Z,36.00
2022-12-17T12:51:44.913Z,32.65
2022-12-17T12:54:44.844Z,28.30
2022-12-17T12:57:51.467Z,33.05
2022-12-17T13:00:48.167Z,33.38
2022-12-17T13:03:49.506Z,33.33
2022-12-17T13:06:40.764Z,33.38
2022-12-17T13:09:30.679Z,29.58
2022-12-17T13:12:20.583Z,28.90
2022-12-17T13:14:55.185Z,31.90
2022-12-17T13:17:32.750Z,27.52
2022-12-17T13:20:06.119Z,35.33
2022-12-17T13:22:35.042Z,32.97
2022-12-17T13:25:19.703Z,33.10
2022-12-17T13:27:48.782Z,34.75
2022-12-17T13:30:32.204Z,28.90
2022-12-17T13:33:19.521Z,34.70
2022-12-17T13:36:00.178Z,34.78
2022-12-17T13:38:37.516Z,32.35
2022-12-17T13:41:10.874Z,29.60
2022-12-17T13:43:46.430Z,30.63
2022-12-17T13:46:23.749Z,38.83
2022-12-17T13:48:58.088Z,27.45
2022-12-17T13:51:28.921Z,33.10
2022-12-17T13:54:00.388Z,32.22
2022-12-17T13:56:32.511Z,28.55
2022-12-17T13:59:08.427Z,26.13
2022-12-17T14:01:46.113Z,28.42
2022-12-17T14:04:23.052Z,24.15
2022-12-17T14:06:53.919Z,30.05
2022-12-17T14:09:24.114Z,30.30
2022-12-17T14:12:11.576Z,31.17
2022-12-17T14:14:42.507Z,35.53
2022-12-17T14:17:20.364Z,31.20
2022-12-17T14:19:53.536Z,30.13
2022-12-17T14:22:31.763Z,27.92
2022-12-17T14:25:00.389Z,31.13
2022-12-17T14:27:33.850Z,34.92
2022-12-17T14:30:04.489Z,29.55
2022-12-17T14:32:36.362Z,33.22
2022-12-17T14:35:05.719Z,25.50
2022-12-17T14:37:34.526Z,31.08
2022-12-17T14:40:05.604Z,30.02
2022-12-17T14:42:38.416Z,33.63
2022-12-17T14:45:22.825Z,36.28
2022-12-17T14:47:55.510Z,28.83
2022-12-17T14:50:31.195Z,32.22
2022-12-17T14:53:04.536Z,32.63
2022-12-17T14:55:36.341Z,37.05
2022-12-17T14:58:19.960Z,33.10
2022-12-17T15:00:51.972Z,31.27
2022-12-17T15:03:24.129Z,38.10
2022-12-17T15:05:59.621Z,35.03
2022-12-17T15:08:31.284Z,30.25
2022-12-17T15:13:29.628Z,34.63
2022-12-17T15:15:59.066Z,32.97
2022-12-17T15:18:27.576Z,32.80
2022-12-17T15:20:56.383Z,31.65
2022-12-17T15:23:25.471Z,41.55
2022-12-17T15:25:55.618Z,37.35
2022-12-17T15:28:25.253Z,35.75
2022-12-17T15:30:55.422Z,40.00
2022-12-17T15:33:23.912Z,38.83
2022-12-17T15:35:52.626Z,41.45
2022-12-17T15:38:21.198Z,39.40
2022-12-17T15:40:49.592Z,47.03
2022-12-17T15:43:16.956Z,43.72
2022-12-17T15:45:47.422Z,46.13
2022-12-17T15:48:19.066Z,41.17
2022-12-17T15:50:47.772Z,40.28
2022-12-17T15:53:16.715Z,45.28
2022-12-17T15:55:45.257Z,41.97
2022-12-17T15:58:14.078Z,41.92
2022-12-17T16:00:42.537Z,43.25
2022-12-17T16:03:10.953Z,46.72
2022-12-17T16:05:40.921Z,45.10
2022-12-17T16:08:09.507Z,52.67
2022-12-17T16:10:39.250Z,52.00
2022-12-17T16:13:07.648Z,47.13
2022-12-17T16:15:36.337Z,50.22
2022-12-17T16:18:06.696Z,55.65
2022-12-17T16:20:35.254Z,46.30
2022-12-17T16:23:05.251Z,49.72
2022-12-17T16:25:33.765Z,53.47
2022-12-17T16:28:02.243Z,51.80
2022-12-17T16:30:30.634Z,48.45
2022-12-17T16:32:59.879Z,47.80
2022-12-17T16:35:29.618Z,55.65
2022-12-17T16:37:58.042Z,57.08
2022-12-17T16:40:29.399Z,49.60
2022-12-17T16:42:57.761Z,56.17
2022-12-17T16:45:26.282Z,51.47
2022-12-17T16:47:54.788Z,60.55
2022-12-17T16:50:23.217Z,55.40
2022-12-17T16:52:52.006Z,62.05
2022-12-17T16:55:20.527Z,59.97
2022-12-17T16:57:50.113Z,61.50
2022-12-17T17:00:18.946Z,56.83
2022-12-17T17:02:53.426Z,59.58
2022-12-17T17:05:22.177Z,53.35
2022-12-17T17:07:50.574Z,49.75
2022-12-17T17:10:19.028Z,50.42
2022-12-17T17:12:47.248Z,42.67
2022-12-17T17:15:17.193Z,61.40
2022-12-17T17:17:54.029Z,57.03
2022-12-17T17:20:24.611Z,57.00
2022-12-17T17:22:52.964Z,54.15
2022-12-17T17:25:21.244Z,53.63
2022-12-17T17:27:49.715Z,62.08
2022-12-17T17:30:19.556Z,55.22
2022-12-17T17:32:47.834Z,55.28
2022-12-17T17:35:16.597Z,61.22
2022-12-17T17:37:44.946Z,62.42
2022-12-17T17:40:14.587Z,60.70
2022-12-17T17:42:46.173Z,52.33
2022-12-17T17:45:19.840Z,58.83
2022-12-17T17:47:48.291Z,60.08
2022-12-17T17:50:16.526Z,62.80
2022-12-17T17:52:44.956Z,61.95
2022-12-17T17:55:13.240Z,54.80
2022-12-17T17:57:42.194Z,53.58
2022-12-17T18:00:12.687Z,58.05
2022-12-17T18:02:42.949Z,56.67
2022-12-17T18:05:11.561Z,62.95
2022-12-17T18:07:40.060Z,49.63
2022-12-17T18:10:09.636Z,56.28
2022-12-17T18:12:55.357Z,51.00
2022-12-17T18:15:23.736Z,52.53
2022-12-17T18:17:53.693Z,48.15
2022-12-17T18:20:21.978Z,48.45
2022-12-17T18:22:50.694Z,53.40
2022-12-17T18:25:19.151Z,39.22
2022-12-17T18:27:47.829Z,47.08
2022-12-17T18:30:17.366Z,54.63
2022-12-17T18:32:46.189Z,50.47
2022-12-17T18:35:16.026Z,47.22
2022-12-17T18:37:44.589Z,51.05
2022-12-17T18:40:12.887Z,49.42
2022-12-17T18:42:58.537Z,49.03
2022-12-17T18:45:26.941Z,56.00
2022-12-17T18:47:55.233Z,42.17
2022-12-17T18:50:26.050Z,46.63
2022-12-17T18:52:54.574Z,43.42
2022-12-17T18:55:23.778Z,42.47
2022-12-17T18:57:52.024Z,44.42
2022-12-17T19:00:20.494Z,43.88
2022-12-17T19:02:48.753Z,40.38
2022-12-17T19:05:17.346Z,40.53
2022-12-17T19:07:47.574Z,40.00
2022-12-17T19:10:15.898Z,50.90
2022-12-17T19:12:44.153Z,42.33
2022-12-17T19:15:12.394Z,46.20
2022-12-17T19:17:41.537Z,44.88
2022-12-17T19:20:10.852Z,41.70
2022-12-17T19:22:39.566Z,53.22
2022-12-17T19:25:10.615Z,34.70
2022-12-17T19:27:38.828Z,41.67
2022-12-17T19:30:08.981Z,43.40
2022-12-17T19:32:37.438Z,48.47
2022-12-17T19:35:06.893Z,43.10
2022-12-17T19:37:35.223Z,46.85
2022-12-17T19:40:03.576Z,41.72
2022-12-17T19:42:37.436Z,42.08
2022-12-17T19:45:06.776Z,37.60
2022-12-17T19:47:34.985Z,44.25
2022-12-17T19:50:03.476Z,49.60
2022-12-17T19:52:31.783Z,33.55
2022-12-17T19:55:00.115Z,42.75
2022-12-17T19:57:28.503Z,41.05
2022-12-17T19:59:58.358Z,49.58
2022-12-17T20:02:32.331Z,47.08
2022-12-17T20:05:01.574Z,50.45
2022-12-17T20:07:30.134Z,45.63
2022-12-17T20:09:58.453Z,52.22
2022-12-17T20:12:26.870Z,44.83
2022-12-17T20:14:55.165Z,43.75
2022-12-17T20:17:26.141Z,48.72
2022-12-17T20:19:57.819Z,38.40
2022-12-17T20:22:26.453Z,45.88
2022-12-17T20:24:54.919Z,44.30
2022-12-17T20:27:23.602Z,34.20
2022-12-17T20:29:51.959Z,43.03
2022-12-17T20:32:21.523Z,44.03
2022-12-17T20:34:51.765Z,48.70
2022-12-17T20:37:21.247Z,38.90
2022-12-17T20:39:49.555Z,40.40
2022-12-17T20:42:18.649Z,46.63
2022-12-17T20:44:53.058Z,36.53
2022-12-17T20:47:22.025Z,43.58
2022-12-17T20:49:51.778Z,41.50
2022-12-17T20:52:20.580Z,48.75
2022-12-17T20:54:49.730Z,39.50
2022-12-17T20:57:18.280Z,43.05
2022-12-17T20:59:46.818Z,42.05
2022-12-17T21:02:15.386Z,33.25
2022-12-17T21:04:44.271Z,39.28
2022-12-17T21:07:14.427Z,45.75
2022-12-17T21:09:42.730Z,40.25
2022-12-17T21:12:13.561Z,42.22
2022-12-17T21:14:42.025Z,33.92
2022-12-17T21:17:10.412Z,32.83
2022-12-17T21:19:38.979Z,34.25
2022-12-17T21:22:07.446Z,34.25
2022-12-17T21:24:42.320Z,41.13
2022-12-17T21:27:14.930Z,38.95
2022-12-17T21:29:43.659Z,38.88
2022-12-17T21:32:12.012Z,34.25
2022-12-17T21:34:40.788Z,37.65
2022-12-17T21:37:11.386Z,34.10
2022-12-17T21:39:41.157Z,38.15
2022-12-17T21:42:26.885Z,34.55
2022-12-17T21:44:55.286Z,39.55
2022-12-17T21:47:24.039Z,37.28
2022-12-17T21:49:52.307Z,39.33
2022-12-17T21:52:20.664Z,39.42
2022-12-17T21:54:50.340Z,42.97
2022-12-17T21:57:18.982Z,40.70
2022-12-17T21:59:48.239Z,37.25
2022-12-17T22:02:17.340Z,43.67
2022-12-17T22:04:46.139Z,50.90
2022-12-17T22:07:26.663Z,32.33
2022-12-17T22:10:38.942Z,33.08
2022-12-17T22:13:10.008Z,39.83
2022-12-17T22:15:42.735Z,31.23
2022-12-17T22:18:16.832Z,37.70
2022-12-17T22:20:45.345Z,35.58
2022-12-17T22:23:15.666Z,32.70
2022-12-17T22:25:45.691Z,42.20
2022-12-17T22:28:14.904Z,36.70
2022-12-17T22:31:00.667Z,35.42
2022-12-17T22:33:34.098Z,30.02
2022-12-17T22:37:46.422Z,35.80
2022-12-17T22:43:26.865Z,27.85
2022-12-17T22:44:49.750Z,35.75
2022-12-17T22:45:09.941Z,32.22
2022-12-17T22:47:39.375Z,34.55
2022-12-17T22:50:08.450Z,28.27
2022-12-17T22:52:37.561Z,33.90
2022-12-17T22:55:07.706Z,30.75
2022-12-17T22:57:38.599Z,34.40
2022-12-17T23:00:13.901Z,25.23
2022-12-17T23:02:45.614Z,34.55
2022-12-17T23:05:14.680Z,34.92
2022-12-17T23:07:43.161Z,25.80
2022-12-17T23:10:12.032Z,33.17
2022-12-17T23:12:54.466Z,31.38
2022-12-17T23:15:27.703Z,29.92
2022-12-17T23:17:58.251Z,27.55
2022-12-17T23:20:28.021Z,30.95
2022-12-17T23:22:57.019Z,29.48
2022-12-17T23:25:25.800Z,29.95
2022-12-17T23:27:56.257Z,28.85
2022-12-17T23:30:24.787Z,32.87
2022-12-17T23:32:53.492Z,29.33
2022-12-17T23:35:22.011Z,25.65
2022-12-17T23:37:50.634Z,26.67
2022-12-17T23:40:19.166Z,27.63
2022-12-17T23:42:47.647Z,25.67
2022-12-17T23:45:17.661Z,28.48
2022-12-17T23:47:45.857Z,24.10
2022-12-17T23:50:14.460Z,32.38
2022-12-17T23:52:42.851Z,25.67
2022-12-17T23:55:11.764Z,27.58
2022-12-17T23:57:41.161Z,22.67
